sensor_id;sensor_type;location;lat;lon;timestamp;pressure;altitude;pressure_sealevel;temperature;humidity
55070;BME280;40967;52.070;8.596;2023-03-26T00:01:03;99509.50;;;7.64;100.00
55070;BME280;40967;52.070;8.596;2023-03-26T00:03:30;99502.75;;;7.61;100.00
55070;BME280;40967;52.070;8.596;2023-03-26T00:06:06;99512.22;;;7.59;100.00
55070;BME280;40967;52.070;8.596;2023-03-26T00:08:33;99508.41;;;7.60;100.00
55070;BME280;40967;52.070;8.596;2023-03-26T00:10:59;99527.31;;;7.60;100.00
55070;BME280;40967;52.070;8.596;2023-03-26T00:13:26;99522.47;;;7.57;100.00
55070;BME280;40967;52.070;8.596;2023-03-26T00:15:51;99526.78;;;7.58;100.00
55070;BME280;40967;52.070;8.596;2023-03-26T00:18:20;99524.38;;;7.51;100.00
55070;BME280;40967;52.070;8.596;2023-03-26T00:20:49;99531.94;;;7.49;100.00
55070;BME280;40967;52.070;8.596;2023-03-26T00:23:15;99526.81;;;7.48;100.00
55070;BME280;40967;52.070;8.596;2023-03-26T00:25:43;99530.88;;;7.45;100.00
55070;BME280;40967;52.070;8.596;2023-03-26T00:28:10;99532.75;;;7.45;100.00
55070;BME280;40967;52.070;8.596;2023-03-26T00:30:35;99538.72;;;7.42;100.00
55070;BME280;40967;52.070;8.596;2023-03-26T00:33:01;99536.25;;;7.40;100.00
55070;BME280;40967;52.070;8.596;2023-03-26T00:35:27;99547.88;;;7.41;100.00
55070;BME280;40967;52.070;8.596;2023-03-26T00:37:55;99553.00;;;7.42;100.00
55070;BME280;40967;52.070;8.596;2023-03-26T00:40:22;99543.03;;;7.38;100.00
55070;BME280;40967;52.070;8.596;2023-03-26T00:42:48;99544.91;;;7.37;100.00
55070;BME280;40967;52.070;8.596;2023-03-26T00:45:14;99551.66;;;7.40;100.00
55070;BME280;40967;52.070;8.596;2023-03-26T00:47:39;99545.72;;;7.38;100.00
55070;BME280;40967;52.070;8.596;2023-03-26T00:50:06;99548.41;;;7.38;100.00
55070;BME280;40967;52.070;8.596;2023-03-26T00:52:31;99546.25;;;7.40;100.00
55070;BME280;40967;52.070;8.596;2023-03-26T00:54:57;99545.72;;;7.38;100.00
55070;BME280;40967;52.070;8.596;2023-03-26T00:57:22;99548.13;;;7.39;100.00
55070;BME280;40967;52.070;8.596;2023-03-26T00:59:48;99550.03;;;7.39;100.00
55070;BME280;40967;52.070;8.596;2023-03-26T01:02:16;99553.81;;;7.38;100.00
55070;BME280;40967;52.070;8.596;2023-03-26T01:07:49;99551.94;;;7.38;100.00
55070;BME280;40967;52.070;8.596;2023-03-26T01:10:16;99549.47;;;7.37;100.00
55070;BME280;40967;52.070;8.596;2023-03-26T01:12:41;99546.00;;;7.36;100.00
55070;BME280;40967;52.070;8.596;2023-03-26T01:15:10;99550.56;;;7.41;100.00
55070;BME280;40967;52.070;8.596;2023-03-26T01:17:37;99552.44;;;7.40;100.00
55070;BME280;40967;52.070;8.596;2023-03-26T01:20:18;99548.41;;;7.43;100.00
55070;BME280;40967;52.070;8.596;2023-03-26T01:22:53;99552.19;;;7.42;100.00
55070;BME280;40967;52.070;8.596;2023-03-26T01:25:24;99546.25;;;7.45;100.00
55070;BME280;40967;52.070;8.596;2023-03-26T01:27:54;99556.22;;;7.44;100.00
55070;BME280;40967;52.070;8.596;2023-03-26T01:33:00;99558.38;;;7.47;100.00
55070;BME280;40967;52.070;8.596;2023-03-26T01:38:01;99548.94;;;7.50;100.00
55070;BME280;40967;52.070;8.596;2023-03-26T01:40:51;99544.63;;;7.49;100.00
55070;BME280;40967;52.070;8.596;2023-03-26T01:46:13;99540.84;;;7.50;100.00
55070;BME280;40967;52.070;8.596;2023-03-26T01:48:42;99539.75;;;7.51;100.00
55070;BME280;40967;52.070;8.596;2023-03-26T01:51:10;99539.25;;;7.49;100.00
55070;BME280;40967;52.070;8.596;2023-03-26T01:53:47;99540.28;;;7.53;100.00
55070;BME280;40967;52.070;8.596;2023-03-26T02:02:05;99531.38;;;7.52;100.00
55070;BME280;40967;52.070;8.596;2023-03-26T02:04:45;99527.34;;;7.50;100.00
55070;BME280;40967;52.070;8.596;2023-03-26T02:09:52;99520.34;;;7.49;100.00
55070;BME280;40967;52.070;8.596;2023-03-26T02:12:20;99517.09;;;7.47;100.00
55070;BME280;40967;52.070;8.596;2023-03-26T02:14:46;99522.22;;;7.48;100.00
55070;BME280;40967;52.070;8.596;2023-03-26T02:17:11;99506.03;;;7.48;100.00
55070;BME280;40967;52.070;8.596;2023-03-26T02:19:37;99508.19;;;7.46;100.00
55070;BME280;40967;52.070;8.596;2023-03-26T02:22:10;99509.00;;;7.47;100.00
55070;BME280;40967;52.070;8.596;2023-03-26T02:24:40;99506.31;;;7.47;100.00
55070;BME280;40967;52.070;8.596;2023-03-26T02:27:06;99498.75;;;7.49;100.00
55070;BME280;40967;52.070;8.596;2023-03-26T02:29:34;99498.47;;;7.50;100.00
55070;BME280;40967;52.070;8.596;2023-03-26T02:32:03;99491.16;;;7.51;100.00
55070;BME280;40967;52.070;8.596;2023-03-26T02:34:29;99480.09;;;7.47;100.00
55070;BME280;40967;52.070;8.596;2023-03-26T02:36:54;99478.22;;;7.48;100.00
55070;BME280;40967;52.070;8.596;2023-03-26T02:39:21;99480.94;;;7.48;100.00
55070;BME280;40967;52.070;8.596;2023-03-26T02:41:47;99482.81;;;7.47;100.00
55070;BME280;40967;52.070;8.596;2023-03-26T02:44:12;99479.06;;;7.43;100.00
55070;BME280;40967;52.070;8.596;2023-03-26T02:46:38;99480.41;;;7.41;100.00
55070;BME280;40967;52.070;8.596;2023-03-26T02:49:03;99472.59;;;7.39;100.00
55070;BME280;40967;52.070;8.596;2023-03-26T02:51:29;99473.66;;;7.43;100.00
55070;BME280;40967;52.070;8.596;2023-03-26T02:54:02;99475.53;;;7.43;100.00
55070;BME280;40967;52.070;8.596;2023-03-26T02:56:28;99476.38;;;7.43;100.00
55070;BME280;40967;52.070;8.596;2023-03-26T02:58:53;99466.38;;;7.39;100.00
55070;BME280;40967;52.070;8.596;2023-03-26T03:01:18;99470.44;;;7.41;100.00
55070;BME280;40967;52.070;8.596;2023-03-26T03:03:44;99466.34;;;7.44;100.00
55070;BME280;40967;52.070;8.596;2023-03-26T03:06:14;99475.00;;;7.46;100.00
55070;BME280;40967;52.070;8.596;2023-03-26T03:08:41;99476.06;;;7.50;100.00
55070;BME280;40967;52.070;8.596;2023-03-26T03:11:13;99468.25;;;7.48;100.00
55070;BME280;40967;52.070;8.596;2023-03-26T03:13:39;99473.94;;;7.47;100.00
55070;BME280;40967;52.070;8.596;2023-03-26T03:16:05;99464.47;;;7.44;100.00
55070;BME280;40967;52.070;8.596;2023-03-26T03:18:31;99465.81;;;7.47;100.00
55070;BME280;40967;52.070;8.596;2023-03-26T03:20:56;99456.91;;;7.46;100.00
55070;BME280;40967;52.070;8.596;2023-03-26T03:23:21;99460.44;;;7.47;100.00
55070;BME280;40967;52.070;8.596;2023-03-26T03:25:47;99462.59;;;7.45;100.00
55070;BME280;40967;52.070;8.596;2023-03-26T03:28:13;99452.63;;;7.45;100.00
55070;BME280;40967;52.070;8.596;2023-03-26T03:30:39;99451.25;;;7.43;100.00
55070;BME280;40967;52.070;8.596;2023-03-26T03:33:04;99448.28;;;7.44;100.00
55070;BME280;40967;52.070;8.596;2023-03-26T03:35:31;99446.94;;;7.47;100.00
55070;BME280;40967;52.070;8.596;2023-03-26T03:37:58;99446.13;;;7.46;100.00
55070;BME280;40967;52.070;8.596;2023-03-26T03:40:24;99445.84;;;7.48;100.00
55070;BME280;40967;52.070;8.596;2023-03-26T03:42:50;99444.78;;;7.49;100.00
55070;BME280;40967;52.070;8.596;2023-03-26T03:45:16;99438.84;;;7.47;100.00
55070;BME280;40967;52.070;8.596;2023-03-26T03:47:41;99434.22;;;7.47;100.00
55070;BME280;40967;52.070;8.596;2023-03-26T03:50:08;99428.56;;;7.44;100.00
55070;BME280;40967;52.070;8.596;2023-03-26T03:52:33;99436.13;;;7.47;100.00
55070;BME280;40967;52.070;8.596;2023-03-26T03:54:58;99443.16;;;7.48;100.00
55070;BME280;40967;52.070;8.596;2023-03-26T03:57:25;99446.38;;;7.50;100.00
55070;BME280;40967;52.070;8.596;2023-03-26T03:59:50;99443.69;;;7.50;100.00
55070;BME280;40967;52.070;8.596;2023-03-26T04:02:16;99432.88;;;7.50;100.00
55070;BME280;40967;52.070;8.596;2023-03-26T04:04:52;99438.28;;;7.50;100.00
55070;BME280;40967;52.070;8.596;2023-03-26T04:07:19;99437.72;;;7.53;100.00
55070;BME280;40967;52.070;8.596;2023-03-26T04:09:45;99433.13;;;7.53;100.00
55070;BME280;40967;52.070;8.596;2023-03-26T04:12:10;99436.38;;;7.55;100.00
55070;BME280;40967;52.070;8.596;2023-03-26T04:14:36;99441.50;;;7.57;100.00
55070;BME280;40967;52.070;8.596;2023-03-26T04:17:01;99440.97;;;7.55;100.00
55070;BME280;40967;52.070;8.596;2023-03-26T04:19:29;99434.50;;;7.51;100.00
55070;BME280;40967;52.070;8.596;2023-03-26T04:21:55;99430.19;;;7.50;100.00
55070;BME280;40967;52.070;8.596;2023-03-26T04:24:29;99436.66;;;7.54;100.00
55070;BME280;40967;52.070;8.596;2023-03-26T04:26:59;99424.75;;;7.55;100.00
55070;BME280;40967;52.070;8.596;2023-03-26T04:29:29;99427.44;;;7.60;100.00
55070;BME280;40967;52.070;8.596;2023-03-26T04:31:57;99423.69;;;7.61;100.00
55070;BME280;40967;52.070;8.596;2023-03-26T04:34:23;99425.28;;;7.62;100.00
55070;BME280;40967;52.070;8.596;2023-03-26T04:36:50;99421.47;;;7.63;100.00
55070;BME280;40967;52.070;8.596;2023-03-26T04:39:19;99419.88;;;7.62;100.00
55070;BME280;40967;52.070;8.596;2023-03-26T04:41:46;99416.91;;;7.58;100.00
55070;BME280;40967;52.070;8.596;2023-03-26T04:44:13;99422.28;;;7.63;100.00
55070;BME280;40967;52.070;8.596;2023-03-26T04:46:41;99419.56;;;7.68;100.00
55070;BME280;40967;52.070;8.596;2023-03-26T04:49:10;99414.72;;;7.70;100.00
55070;BME280;40967;52.070;8.596;2023-03-26T04:51:37;99414.44;;;7.72;100.00
55070;BME280;40967;52.070;8.596;2023-03-26T04:54:03;99410.94;;;7.71;100.00
55070;BME280;40967;52.070;8.596;2023-03-26T04:58:59;99403.63;;;7.72;100.00
55070;BME280;40967;52.070;8.596;2023-03-26T05:01:25;99405.78;;;7.70;100.00
55070;BME280;40967;52.070;8.596;2023-03-26T05:03:55;99405.78;;;7.70;100.00
55070;BME280;40967;52.070;8.596;2023-03-26T05:06:21;99393.09;;;7.70;100.00
55070;BME280;40967;52.070;8.596;2023-03-26T05:08:46;99383.69;;;7.68;100.00
55070;BME280;40967;52.070;8.596;2023-03-26T05:11:12;99386.06;;;7.74;100.00
55070;BME280;40967;52.070;8.596;2023-03-26T05:13:38;99385.25;;;7.74;100.00
55070;BME280;40967;52.070;8.596;2023-03-26T05:16:04;99383.09;;;7.76;100.00
55070;BME280;40967;52.070;8.596;2023-03-26T05:18:29;99383.09;;;7.76;100.00
55070;BME280;40967;52.070;8.596;2023-03-26T05:20:56;99381.47;;;7.75;100.00
55070;BME280;40967;52.070;8.596;2023-03-26T05:23:22;99376.31;;;7.78;100.00
55070;BME280;40967;52.070;8.596;2023-03-26T05:25:47;99372.53;;;7.79;100.00
55070;BME280;40967;52.070;8.596;2023-03-26T05:28:13;99374.72;;;7.77;100.00
55070;BME280;40967;52.070;8.596;2023-03-26T05:30:38;99378.75;;;7.80;100.00
55070;BME280;40967;52.070;8.596;2023-03-26T05:33:04;99372.28;;;7.76;100.00
55070;BME280;40967;52.070;8.596;2023-03-26T05:35:30;99376.88;;;7.75;100.00
55070;BME280;40967;52.070;8.596;2023-03-26T05:37:56;99368.78;;;7.75;100.00
55070;BME280;40967;52.070;8.596;2023-03-26T05:40:21;99368.22;;;7.78;100.00
55070;BME280;40967;52.070;8.596;2023-03-26T05:42:47;99375.53;;;7.78;100.00
55070;BME280;40967;52.070;8.596;2023-03-26T05:45:13;99372.81;;;7.78;100.00
55070;BME280;40967;52.070;8.596;2023-03-26T05:47:39;99369.84;;;7.79;100.00
55070;BME280;40967;52.070;8.596;2023-03-26T05:50:06;99370.38;;;7.81;100.00
55070;BME280;40967;52.070;8.596;2023-03-26T05:52:31;99371.16;;;7.82;100.00
55070;BME280;40967;52.070;8.596;2023-03-26T05:54:59;99357.13;;;7.85;100.00
55070;BME280;40967;52.070;8.596;2023-03-26T05:57:24;99366.25;;;7.89;100.00
55070;BME280;40967;52.070;8.596;2023-03-26T05:59:53;99359.78;;;7.90;100.00
55070;BME280;40967;52.070;8.596;2023-03-26T06:02:19;99360.84;;;7.89;100.00
55070;BME280;40967;52.070;8.596;2023-03-26T06:04:45;99358.16;;;7.89;100.00
55070;BME280;40967;52.070;8.596;2023-03-26T06:07:10;99352.75;;;7.89;100.00
55070;BME280;40967;52.070;8.596;2023-03-26T06:09:37;99364.38;;;7.89;100.00
55070;BME280;40967;52.070;8.596;2023-03-26T06:12:04;99350.59;;;7.91;100.00
55070;BME280;40967;52.070;8.596;2023-03-26T06:14:30;99345.44;;;7.94;100.00
55070;BME280;40967;52.070;8.596;2023-03-26T06:16:55;99348.38;;;7.98;100.00
55070;BME280;40967;52.070;8.596;2023-03-26T06:19:21;99339.22;;;7.99;100.00
55070;BME280;40967;52.070;8.596;2023-03-26T06:21:46;99338.63;;;8.02;100.00
55070;BME280;40967;52.070;8.596;2023-03-26T06:24:12;99338.41;;;7.98;100.00
55070;BME280;40967;52.070;8.596;2023-03-26T06:26:37;99342.16;;;7.97;100.00
55070;BME280;40967;52.070;8.596;2023-03-26T06:29:03;99336.50;;;7.99;100.00
55070;BME280;40967;52.070;8.596;2023-03-26T06:31:28;99327.03;;;8.01;100.00
55070;BME280;40967;52.070;8.596;2023-03-26T06:33:53;99320.03;;;8.00;100.00
55070;BME280;40967;52.070;8.596;2023-03-26T06:36:19;99323.50;;;8.06;100.00
55070;BME280;40967;52.070;8.596;2023-03-26T06:38:44;99330.50;;;8.07;100.00
55070;BME280;40967;52.070;8.596;2023-03-26T06:41:10;99333.72;;;8.09;100.00
55070;BME280;40967;52.070;8.596;2023-03-26T06:43:35;99329.38;;;8.13;100.00
55070;BME280;40967;52.070;8.596;2023-03-26T06:46:02;99322.88;;;8.14;100.00
55070;BME280;40967;52.070;8.596;2023-03-26T06:48:27;99330.16;;;8.14;100.00
55070;BME280;40967;52.070;8.596;2023-03-26T06:50:53;99328.28;;;8.14;100.00
55070;BME280;40967;52.070;8.596;2023-03-26T06:53:19;99322.59;;;8.16;100.00
55070;BME280;40967;52.070;8.596;2023-03-26T06:55:44;99322.84;;;8.19;100.00
55070;BME280;40967;52.070;8.596;2023-03-26T06:58:11;99324.97;;;8.22;100.00
55070;BME280;40967;52.070;8.596;2023-03-26T07:00:37;99314.44;;;8.26;100.00
55070;BME280;40967;52.070;8.596;2023-03-26T07:03:03;99317.38;;;8.29;100.00
55070;BME280;40967;52.070;8.596;2023-03-26T07:05:29;99314.13;;;8.32;100.00
55070;BME280;40967;52.070;8.596;2023-03-26T07:07:54;99307.91;;;8.32;100.00
55070;BME280;40967;52.070;8.596;2023-03-26T07:10:20;99312.16;;;8.38;100.00
55070;BME280;40967;52.070;8.596;2023-03-26T07:12:45;99316.72;;;8.42;100.00
55070;BME280;40967;52.070;8.596;2023-03-26T07:15:11;99314.50;;;8.49;100.00
55070;BME280;40967;52.070;8.596;2023-03-26T07:17:36;99312.56;;;8.55;100.00
55070;BME280;40967;52.070;8.596;2023-03-26T07:20:06;99305.47;;;8.59;100.00
55070;BME280;40967;52.070;8.596;2023-03-26T07:22:32;99307.81;;;8.65;100.00
55070;BME280;40967;52.070;8.596;2023-03-26T07:24:58;99305.34;;;8.69;100.00
55070;BME280;40967;52.070;8.596;2023-03-26T07:27:43;99304.00;;;8.71;100.00
55070;BME280;40967;52.070;8.596;2023-03-26T07:33:02;99287.75;;;8.71;100.00
55070;BME280;40967;52.070;8.596;2023-03-26T07:35:45;99297.78;;;8.71;100.00
55070;BME280;40967;52.070;8.596;2023-03-26T07:45:54;99290.00;;;8.88;100.00
55070;BME280;40967;52.070;8.596;2023-03-26T07:48:25;99292.16;;;8.91;100.00
55070;BME280;40967;52.070;8.596;2023-03-26T07:50:54;99282.09;;;8.96;100.00
55070;BME280;40967;52.070;8.596;2023-03-26T07:53:21;99280.91;;;9.02;100.00
55070;BME280;40967;52.070;8.596;2023-03-26T07:58:37;99270.31;;;9.06;100.00
55070;BME280;40967;52.070;8.596;2023-03-26T08:01:16;99279.81;;;9.03;100.00
55070;BME280;40967;52.070;8.596;2023-03-26T08:07:02;99263.81;;;9.07;100.00
55070;BME280;40967;52.070;8.596;2023-03-26T08:09:56;99264.97;;;9.01;100.00
55070;BME280;40967;52.070;8.596;2023-03-26T08:12:34;99271.97;;;9.02;100.00
55070;BME280;40967;52.070;8.596;2023-03-26T08:15:24;99273.69;;;8.98;100.00
55070;BME280;40967;52.070;8.596;2023-03-26T08:31:02;99272.66;;;9.12;100.00
55070;BME280;40967;52.070;8.596;2023-03-26T08:33:28;99263.91;;;9.21;100.00
55070;BME280;40967;52.070;8.596;2023-03-26T08:35:54;99270.34;;;9.25;100.00
55070;BME280;40967;52.070;8.596;2023-03-26T08:38:20;99269.25;;;9.26;100.00
55070;BME280;40967;52.070;8.596;2023-03-26T08:52:02;99257.41;;;9.40;100.00
55070;BME280;40967;52.070;8.596;2023-03-26T08:54:46;99258.38;;;9.49;100.00
55070;BME280;40967;52.070;8.596;2023-03-26T09:10:49;99235.03;;;10.04;98.19
55070;BME280;40967;52.070;8.596;2023-03-26T09:16:43;99224.28;;;10.31;97.07
55070;BME280;40967;52.070;8.596;2023-03-26T09:39:28;99210.63;;;10.90;95.53
55070;BME280;40967;52.070;8.596;2023-03-26T09:53:18;99212.13;;;11.45;91.67
55070;BME280;40967;52.070;8.596;2023-03-26T10:01:43;99206.50;;;11.78;89.87
55070;BME280;40967;52.070;8.596;2023-03-26T10:10:04;99197.34;;;11.96;87.22
55070;BME280;40967;52.070;8.596;2023-03-26T10:12:40;99196.75;;;11.99;86.55
55070;BME280;40967;52.070;8.596;2023-03-26T10:18:13;99199.34;;;12.04;85.43
55070;BME280;40967;52.070;8.596;2023-03-26T10:31:51;99197.34;;;12.18;83.67
55070;BME280;40967;52.070;8.596;2023-03-26T10:37:12;99196.06;;;12.24;81.64
55070;BME280;40967;52.070;8.596;2023-03-26T10:48:30;99190.19;;;12.30;79.57
55070;BME280;40967;52.070;8.596;2023-03-26T10:56:33;99186.94;;;12.20;80.34
55070;BME280;40967;52.070;8.596;2023-03-26T10:59:06;99185.84;;;12.21;80.41
55070;BME280;40967;52.070;8.596;2023-03-26T11:07:24;99192.69;;;12.18;80.89
55070;BME280;40967;52.070;8.596;2023-03-26T11:13:08;99186.69;;;12.08;80.15
55070;BME280;40967;52.070;8.596;2023-03-26T11:15:46;99183.31;;;12.02;79.53
55070;BME280;40967;52.070;8.596;2023-03-26T11:18:23;99190.13;;;11.91;79.40
55070;BME280;40967;52.070;8.596;2023-03-26T11:21:10;99194.38;;;11.84;79.21
55070;BME280;40967;52.070;8.596;2023-03-26T11:34:35;99193.16;;;11.32;83.48
55070;BME280;40967;52.070;8.596;2023-03-26T11:37:06;99179.41;;;11.28;83.80
55070;BME280;40967;52.070;8.596;2023-03-26T11:39:41;99186.03;;;11.22;84.44
55070;BME280;40967;52.070;8.596;2023-03-26T11:42:12;99185.66;;;11.15;84.79
55070;BME280;40967;52.070;8.596;2023-03-26T11:44:45;99182.25;;;11.10;85.58
55070;BME280;40967;52.070;8.596;2023-03-26T11:47:14;99168.09;;;10.99;86.19
55070;BME280;40967;52.070;8.596;2023-03-26T11:49:44;99171.81;;;11.03;87.17
55070;BME280;40967;52.070;8.596;2023-03-26T11:52:11;99179.16;;;11.03;87.73
55070;BME280;40967;52.070;8.596;2023-03-26T11:54:39;99181.69;;;10.99;88.08
55070;BME280;40967;52.070;8.596;2023-03-26T11:57:07;99181.69;;;10.99;88.14
55070;BME280;40967;52.070;8.596;2023-03-26T11:59:38;99177.66;;;10.97;89.12
55070;BME280;40967;52.070;8.596;2023-03-26T12:04:43;99178.56;;;10.92;89.11
55070;BME280;40967;52.070;8.596;2023-03-26T12:07:28;99185.41;;;10.90;89.79
55070;BME280;40967;52.070;8.596;2023-03-26T12:09:58;99177.06;;;10.86;89.76
55070;BME280;40967;52.070;8.596;2023-03-26T12:12:37;99176.34;;;10.81;89.70
55070;BME280;40967;52.070;8.596;2023-03-26T12:15:11;99174.06;;;10.74;89.97
55070;BME280;40967;52.070;8.596;2023-03-26T12:17:38;99172.28;;;10.70;90.16
55070;BME280;40967;52.070;8.596;2023-03-26T12:23:12;99182.72;;;10.63;91.03
55070;BME280;40967;52.070;8.596;2023-03-26T12:25:37;99181.59;;;10.64;91.50
55070;BME280;40967;52.070;8.596;2023-03-26T12:30:39;99179.00;;;10.59;92.04
55070;BME280;40967;52.070;8.596;2023-03-26T12:35:46;99181.00;;;10.53;92.47
55070;BME280;40967;52.070;8.596;2023-03-26T12:40:47;99180.69;;;10.41;92.49
55070;BME280;40967;52.070;8.596;2023-03-26T12:46:01;99183.19;;;10.24;91.87
55070;BME280;40967;52.070;8.596;2023-03-26T12:48:26;99184.88;;;10.20;91.99
55070;BME280;40967;52.070;8.596;2023-03-26T12:56:28;99178.97;;;9.86;89.12
55070;BME280;40967;52.070;8.596;2023-03-26T13:07:43;99182.06;;;9.79;91.64
55070;BME280;40967;52.070;8.596;2023-03-26T13:16:16;99177.34;;;9.53;95.43
55070;BME280;40967;52.070;8.596;2023-03-26T13:18:53;99179.63;;;9.46;96.68
55070;BME280;40967;52.070;8.596;2023-03-26T13:26:43;99178.41;;;9.38;98.17
55070;BME280;40967;52.070;8.596;2023-03-26T13:32:18;99174.28;;;9.41;97.55
55070;BME280;40967;52.070;8.596;2023-03-26T13:40:24;99179.72;;;9.41;97.70
55070;BME280;40967;52.070;8.596;2023-03-26T13:45:38;99167.38;;;9.35;97.18
55070;BME280;40967;52.070;8.596;2023-03-26T13:48:16;99157.69;;;9.29;97.35
55070;BME280;40967;52.070;8.596;2023-03-26T13:50:50;99171.16;;;9.34;97.52
55070;BME280;40967;52.070;8.596;2023-03-26T13:53:23;99168.97;;;9.36;98.03
55070;BME280;40967;52.070;8.596;2023-03-26T13:55:53;99170.84;;;9.35;98.08
55070;BME280;40967;52.070;8.596;2023-03-26T13:58:45;99169.78;;;9.36;98.24
55070;BME280;40967;52.070;8.596;2023-03-26T14:01:19;99165.38;;;9.40;98.33
55070;BME280;40967;52.070;8.596;2023-03-26T14:09:16;99163.69;;;9.44;98.12
55070;BME280;40967;52.070;8.596;2023-03-26T14:11:51;99168.50;;;9.47;97.97
55070;BME280;40967;52.070;8.596;2023-03-26T14:16:57;99176.84;;;9.51;98.08
55070;BME280;40967;52.070;8.596;2023-03-26T14:25:02;99180.28;;;9.56;97.89
55070;BME280;40967;52.070;8.596;2023-03-26T14:46:42;99194.88;;;9.42;97.57
55070;BME280;40967;52.070;8.596;2023-03-26T14:54:37;99193.03;;;9.18;97.26
55070;BME280;40967;52.070;8.596;2023-03-26T15:13:42;99202.59;;;8.92;97.78
55070;BME280;40967;52.070;8.596;2023-03-26T15:17:02;99215.59;;;8.90;97.77
55070;BME280;40967;52.070;8.596;2023-03-26T15:38:33;99235.56;;;8.71;96.66
55070;BME280;40967;52.070;8.596;2023-03-26T15:41:03;99226.44;;;8.67;96.51
55070;BME280;40967;52.070;8.596;2023-03-26T15:44:13;99231.88;;;8.62;96.57
55070;BME280;40967;52.070;8.596;2023-03-26T15:57:45;99247.16;;;8.53;96.52
55070;BME280;40967;52.070;8.596;2023-03-26T16:00:24;99241.47;;;8.54;96.45
55070;BME280;40967;52.070;8.596;2023-03-26T16:08:20;99250.22;;;8.41;95.33
55070;BME280;40967;52.070;8.596;2023-03-26T16:10:59;99254.09;;;8.35;94.86
55070;BME280;40967;52.070;8.596;2023-03-26T16:24:18;99268.03;;;8.14;92.09
55070;BME280;40967;52.070;8.596;2023-03-26T16:29:17;99269.97;;;8.08;91.93
55070;BME280;40967;52.070;8.596;2023-03-26T16:32:14;99282.69;;;8.07;91.33
55070;BME280;40967;52.070;8.596;2023-03-26T16:34:58;99276.00;;;8.00;91.38
55070;BME280;40967;52.070;8.596;2023-03-26T16:45:36;99287.31;;;8.02;91.35
55070;BME280;40967;52.070;8.596;2023-03-26T16:50:53;99286.97;;;7.80;88.77
55070;BME280;40967;52.070;8.596;2023-03-26T16:56:23;99299.44;;;7.71;88.05
55070;BME280;40967;52.070;8.596;2023-03-26T16:58:56;99313.47;;;7.73;88.45
55070;BME280;40967;52.070;8.596;2023-03-26T17:01:46;99313.47;;;7.73;88.34
55070;BME280;40967;52.070;8.596;2023-03-26T17:04:18;99318.88;;;7.73;88.48
55070;BME280;40967;52.070;8.596;2023-03-26T17:06:55;99321.03;;;7.71;88.71
55070;BME280;40967;52.070;8.596;2023-03-26T17:09:56;99327.25;;;7.66;88.67
55070;BME280;40967;52.070;8.596;2023-03-26T17:18:26;99348.63;;;7.58;87.79
55070;BME280;40967;52.070;8.596;2023-03-26T17:21:03;99341.63;;;7.57;88.11
55070;BME280;40967;52.070;8.596;2023-03-26T17:24:37;99350.78;;;7.56;88.09
55070;BME280;40967;52.070;8.596;2023-03-26T17:26:55;99361.09;;;7.54;87.47
55070;BME280;40967;52.070;8.596;2023-03-26T17:32:12;99372.72;;;7.44;86.73
55070;BME280;40967;52.070;8.596;2023-03-26T17:44:53;99392.00;;;7.08;83.26
55070;BME280;40967;52.070;8.596;2023-03-26T17:47:33;99400.09;;;7.03;82.36
55070;BME280;40967;52.070;8.596;2023-03-26T17:52:50;99413.38;;;6.84;82.13
55070;BME280;40967;52.070;8.596;2023-03-26T17:55:29;99417.41;;;6.76;81.96
55070;BME280;40967;52.070;8.596;2023-03-26T17:58:00;99423.91;;;6.70;81.64
55070;BME280;40967;52.070;8.596;2023-03-26T18:02:59;99434.94;;;6.59;81.99
55070;BME280;40967;52.070;8.596;2023-03-26T18:05:27;99433.59;;;6.56;80.38
55070;BME280;40967;52.070;8.596;2023-03-26T18:08:13;99441.94;;;6.50;80.85
55070;BME280;40967;52.070;8.596;2023-03-26T18:16:12;99467.81;;;6.41;80.04
55070;BME280;40967;52.070;8.596;2023-03-26T18:21:29;99475.34;;;6.29;80.53
55070;BME280;40967;52.070;8.596;2023-03-26T18:23:56;99475.06;;;6.25;81.12
55070;BME280;40967;52.070;8.596;2023-03-26T18:29:29;99484.47;;;6.18;80.38
55070;BME280;40967;52.070;8.596;2023-03-26T18:32:17;99498.75;;;6.13;80.08
55070;BME280;40967;52.070;8.596;2023-03-26T18:34:48;99500.59;;;6.08;80.25
55070;BME280;40967;52.070;8.596;2023-03-26T18:37:31;99505.16;;;6.02;80.33
55070;BME280;40967;52.070;8.596;2023-03-26T18:39:59;99511.59;;;6.01;80.94
55070;BME280;40967;52.070;8.596;2023-03-26T18:42:27;99520.75;;;6.00;80.38
55070;BME280;40967;52.070;8.596;2023-03-26T18:44:55;99516.69;;;5.93;80.50
55070;BME280;40967;52.070;8.596;2023-03-26T18:47:21;99526.41;;;5.94;80.23
55070;BME280;40967;52.070;8.596;2023-03-26T18:49:50;99528.53;;;5.92;80.34
55070;BME280;40967;52.070;8.596;2023-03-26T18:52:18;99532.03;;;5.87;79.82
55070;BME280;40967;52.070;8.596;2023-03-26T18:54:49;99533.84;;;5.82;80.23
55070;BME280;40967;52.070;8.596;2023-03-26T18:57:24;99537.31;;;5.77;80.67
55070;BME280;40967;52.070;8.596;2023-03-26T18:59:53;99544.06;;;5.79;81.00
55070;BME280;40967;52.070;8.596;2023-03-26T19:02:20;99547.84;;;5.78;80.92
55070;BME280;40967;52.070;8.596;2023-03-26T19:04:47;99549.66;;;5.68;80.33
55070;BME280;40967;52.070;8.596;2023-03-26T19:07:17;99555.78;;;5.58;79.54
55070;BME280;40967;52.070;8.596;2023-03-26T19:09:43;99556.03;;;5.52;79.31
55070;BME280;40967;52.070;8.596;2023-03-26T19:17:20;99571.50;;;5.35;79.06
55070;BME280;40967;52.070;8.596;2023-03-26T19:19:47;99562.31;;;5.26;78.63
55070;BME280;40967;52.070;8.596;2023-03-26T19:22:14;99573.59;;;5.23;78.53
55070;BME280;40967;52.070;8.596;2023-03-26T19:24:40;99583.47;;;5.17;78.44
55070;BME280;40967;52.070;8.596;2023-03-26T19:27:06;99596.63;;;5.14;79.03
55070;BME280;40967;52.070;8.596;2023-03-26T19:29:32;99593.34;;;5.07;78.41
55070;BME280;40967;52.070;8.596;2023-03-26T19:32:28;99603.22;;;5.01;78.57
55070;BME280;40967;52.070;8.596;2023-03-26T19:34:57;99594.81;;;4.93;78.40
55070;BME280;40967;52.070;8.596;2023-03-26T19:37:26;99606.09;;;4.90;78.89
55070;BME280;40967;52.070;8.596;2023-03-26T19:40:00;99614.13;;;4.85;78.91
55070;BME280;40967;52.070;8.596;2023-03-26T19:42:29;99618.63;;;4.79;79.30